sensor_id;sensor_type;location;lat;lon;timestamp;P1;durP1;ratioP1;P2;durP2;ratioP2
357;SDS011;167;47.558;7.602;2023-03-24T00:02:13;1.90;;;1.80;;
357;SDS011;167;47.558;7.602;2023-03-24T00:04:40;2.90;;;2.27;;
357;SDS011;167;47.558;7.602;2023-03-24T00:07:07;1.80;;;1.70;;
357;SDS011;167;47.558;7.602;2023-03-24T00:09:33;2.37;;;2.17;;
357;SDS011;167;47.558;7.602;2023-03-24T00:12:00;1.93;;;1.83;;
357;SDS011;167;47.558;7.602;2023-03-24T00:14:26;2.70;;;1.90;;
357;SDS011;167;47.558;7.602;2023-03-24T00:16:54;3.37;;;2.00;;
357;SDS011;167;47.558;7.602;2023-03-24T00:19:22;1.87;;;1.77;;
357;SDS011;167;47.558;7.602;2023-03-24T00:21:48;1.70;;;1.60;;
357;SDS011;167;47.558;7.602;2023-03-24T00:24:14;1.80;;;1.70;;
357;SDS011;167;47.558;7.602;2023-03-24T00:26:40;1.60;;;1.50;;
357;SDS011;167;47.558;7.602;2023-03-24T00:29:09;2.60;;;1.40;;
357;SDS011;167;47.558;7.602;2023-03-24T00:31:35;2.30;;;1.93;;
357;SDS011;167;47.558;7.602;2023-03-24T00:34:03;1.40;;;1.40;;
357;SDS011;167;47.558;7.602;2023-03-24T00:36:30;1.63;;;1.53;;
357;SDS011;167;47.558;7.602;2023-03-24T00:38:56;2.40;;;2.30;;
357;SDS011;167;47.558;7.602;2023-03-24T00:41:22;2.03;;;1.60;;
357;SDS011;167;47.558;7.602;2023-03-24T00:43:52;2.67;;;2.47;;
357;SDS011;167;47.558;7.602;2023-03-24T00:46:18;1.50;;;1.40;;
357;SDS011;167;47.558;7.602;2023-03-24T00:49:03;1.33;;;1.27;;
357;SDS011;167;47.558;7.602;2023-03-24T00:51:39;2.50;;;1.60;;
357;SDS011;167;47.558;7.602;2023-03-24T00:54:06;2.33;;;1.80;;
357;SDS011;167;47.558;7.602;2023-03-24T00:56:33;1.90;;;1.77;;
357;SDS011;167;47.558;7.602;2023-03-24T00:59:01;2.13;;;2.03;;
357;SDS011;167;47.558;7.602;2023-03-24T01:01:28;2.93;;;1.30;;
357;SDS011;167;47.558;7.602;2023-03-24T01:03:57;1.80;;;1.67;;
357;SDS011;167;47.558;7.602;2023-03-24T01:06:24;1.60;;;1.50;;
357;SDS011;167;47.558;7.602;2023-03-24T01:08:50;1.57;;;1.47;;
357;SDS011;167;47.558;7.602;2023-03-24T01:11:18;1.63;;;1.53;;
357;SDS011;167;47.558;7.602;2023-03-24T01:13:45;1.90;;;1.80;;
357;SDS011;167;47.558;7.602;2023-03-24T01:16:11;1.67;;;1.57;;
357;SDS011;167;47.558;7.602;2023-03-24T01:18:37;1.93;;;1.83;;
357;SDS011;167;47.558;7.602;2023-03-24T01:21:04;2.07;;;1.90;;
357;SDS011;167;47.558;7.602;2023-03-24T01:23:31;3.03;;;1.40;;
357;SDS011;167;47.558;7.602;2023-03-24T01:25:58;3.13;;;2.13;;
357;SDS011;167;47.558;7.602;2023-03-24T01:28:24;1.20;;;1.20;;
357;SDS011;167;47.558;7.602;2023-03-24T01:30:51;1.63;;;1.53;;
357;SDS011;167;47.558;7.602;2023-03-24T01:33:17;1.80;;;1.40;;
357;SDS011;167;47.558;7.602;2023-03-24T01:35:43;0.97;;;0.97;;
357;SDS011;167;47.558;7.602;2023-03-24T01:38:10;0.90;;;0.90;;
357;SDS011;167;47.558;7.602;2023-03-24T01:40:38;1.03;;;1.03;;
357;SDS011;167;47.558;7.602;2023-03-24T01:43:04;1.00;;;0.90;;
357;SDS011;167;47.558;7.602;2023-03-24T01:48:07;1.03;;;1.03;;
357;SDS011;167;47.558;7.602;2023-03-24T01:50:34;1.23;;;1.13;;
357;SDS011;167;47.558;7.602;2023-03-24T01:53:00;0.90;;;0.90;;
357;SDS011;167;47.558;7.602;2023-03-24T01:55:26;0.67;;;0.67;;
357;SDS011;167;47.558;7.602;2023-03-24T01:57:54;0.80;;;0.80;;
357;SDS011;167;47.558;7.602;2023-03-24T02:00:20;1.10;;;1.00;;
357;SDS011;167;47.558;7.602;2023-03-24T02:02:48;1.10;;;1.10;;
357;SDS011;167;47.558;7.602;2023-03-24T02:05:19;1.20;;;1.20;;
357;SDS011;167;47.558;7.602;2023-03-24T02:07:53;0.70;;;0.70;;
357;SDS011;167;47.558;7.602;2023-03-24T02:10:21;0.70;;;0.70;;
357;SDS011;167;47.558;7.602;2023-03-24T02:12:48;1.03;;;0.87;;
357;SDS011;167;47.558;7.602;2023-03-24T02:15:14;0.80;;;0.80;;
357;SDS011;167;47.558;7.602;2023-03-24T02:31:20;0.83;;;0.83;;
357;SDS011;167;47.558;7.602;2023-03-24T02:43:36;0.73;;;0.73;;
357;SDS011;167;47.558;7.602;2023-03-24T02:46:11;0.97;;;0.97;;
357;SDS011;167;47.558;7.602;2023-03-24T02:48:45;0.90;;;0.90;;
357;SDS011;167;47.558;7.602;2023-03-24T02:51:16;0.90;;;0.90;;
357;SDS011;167;47.558;7.602;2023-03-24T03:01:17;0.70;;;0.70;;
357;SDS011;167;47.558;7.602;2023-03-24T03:03:48;0.83;;;0.83;;
357;SDS011;167;47.558;7.602;2023-03-24T03:06:17;0.57;;;0.57;;
357;SDS011;167;47.558;7.602;2023-03-24T03:08:46;0.87;;;0.87;;
357;SDS011;167;47.558;7.602;2023-03-24T03:11:13;0.70;;;0.70;;
357;SDS011;167;47.558;7.602;2023-03-24T03:13:45;0.63;;;0.63;;
357;SDS011;167;47.558;7.602;2023-03-24T03:16:15;0.90;;;0.90;;
357;SDS011;167;47.558;7.602;2023-03-24T03:18:47;0.73;;;0.73;;
357;SDS011;167;47.558;7.602;2023-03-24T03:21:14;1.20;;;0.90;;
357;SDS011;167;47.558;7.602;2023-03-24T03:23:42;1.03;;;1.03;;
357;SDS011;167;47.558;7.602;2023-03-24T03:26:11;0.80;;;0.80;;
357;SDS011;167;47.558;7.602;2023-03-24T03:28:39;0.70;;;0.70;;
357;SDS011;167;47.558;7.602;2023-03-24T03:31:07;1.00;;;1.00;;
357;SDS011;167;47.558;7.602;2023-03-24T03:33:42;3.37;;;1.07;;
357;SDS011;167;47.558;7.602;2023-03-24T03:41:15;0.80;;;0.80;;
357;SDS011;167;47.558;7.602;2023-03-24T03:43:42;1.10;;;1.00;;
357;SDS011;167;47.558;7.602;2023-03-24T03:46:08;1.20;;;1.20;;
357;SDS011;167;47.558;7.602;2023-03-24T03:48:34;1.10;;;1.10;;
357;SDS011;167;47.558;7.602;2023-03-24T03:51:01;2.87;;;1.40;;
357;SDS011;167;47.558;7.602;2023-03-24T03:53:29;1.00;;;1.00;;
357;SDS011;167;47.558;7.602;2023-03-24T03:55:56;1.17;;;1.10;;
357;SDS011;167;47.558;7.602;2023-03-24T03:58:22;0.97;;;0.97;;
357;SDS011;167;47.558;7.602;2023-03-24T04:00:48;1.60;;;1.00;;
357;SDS011;167;47.558;7.602;2023-03-24T04:03:31;1.53;;;1.40;;
357;SDS011;167;47.558;7.602;2023-03-24T04:24:24;1.50;;;1.40;;
357;SDS011;167;47.558;7.602;2023-03-24T04:27:12;2.00;;;1.90;;
357;SDS011;167;47.558;7.602;2023-03-24T04:29:45;1.50;;;1.40;;
357;SDS011;167;47.558;7.602;2023-03-24T04:34:47;1.60;;;1.50;;
357;SDS011;167;47.558;7.602;2023-03-24T04:37:18;1.80;;;1.70;;
357;SDS011;167;47.558;7.602;2023-03-24T04:39:46;1.80;;;1.70;;
357;SDS011;167;47.558;7.602;2023-03-24T04:42:21;1.70;;;1.60;;
357;SDS011;167;47.558;7.602;2023-03-24T04:44:49;1.50;;;1.50;;
357;SDS011;167;47.558;7.602;2023-03-24T04:47:16;1.57;;;1.47;;
357;SDS011;167;47.558;7.602;2023-03-24T04:49:43;1.70;;;1.60;;
357;SDS011;167;47.558;7.602;2023-03-24T04:52:09;2.23;;;1.80;;
357;SDS011;167;47.558;7.602;2023-03-24T04:54:35;3.00;;;2.53;;
357;SDS011;167;47.558;7.602;2023-03-24T04:57:01;2.53;;;2.43;;
357;SDS011;167;47.558;7.602;2023-03-24T04:59:28;1.87;;;1.70;;
357;SDS011;167;47.558;7.602;2023-03-24T05:01:55;2.53;;;2.33;;
357;SDS011;167;47.558;7.602;2023-03-24T05:04:22;2.70;;;2.37;;
357;SDS011;167;47.558;7.602;2023-03-24T05:06:49;2.20;;;2.10;;
357;SDS011;167;47.558;7.602;2023-03-24T05:09:19;2.00;;;1.90;;
357;SDS011;167;47.558;7.602;2023-03-24T05:11:45;1.93;;;1.83;;
357;SDS011;167;47.558;7.602;2023-03-24T05:14:11;2.13;;;2.03;;
357;SDS011;167;47.558;7.602;2023-03-24T05:16:37;2.50;;;2.30;;
357;SDS011;167;47.558;7.602;2023-03-24T05:19:04;2.23;;;2.13;;
357;SDS011;167;47.558;7.602;2023-03-24T05:21:30;1.83;;;1.73;;
357;SDS011;167;47.558;7.602;2023-03-24T05:23:56;2.47;;;2.37;;
357;SDS011;167;47.558;7.602;2023-03-24T05:26:22;8.20;;;2.10;;
357;SDS011;167;47.558;7.602;2023-03-24T05:28:48;1.90;;;1.83;;
357;SDS011;167;47.558;7.602;2023-03-24T05:31:14;2.10;;;1.93;;
357;SDS011;167;47.558;7.602;2023-03-24T05:33:40;2.10;;;2.00;;
357;SDS011;167;47.558;7.602;2023-03-24T05:36:06;2.30;;;2.20;;
357;SDS011;167;47.558;7.602;2023-03-24T05:38:32;2.57;;;2.37;;
357;SDS011;167;47.558;7.602;2023-03-24T05:40:59;2.80;;;2.60;;
357;SDS011;167;47.558;7.602;2023-03-24T05:43:25;2.10;;;2.00;;
357;SDS011;167;47.558;7.602;2023-03-24T05:45:51;2.60;;;2.50;;
357;SDS011;167;47.558;7.602;2023-03-24T05:48:17;2.43;;;2.33;;
357;SDS011;167;47.558;7.602;2023-03-24T05:50:43;2.63;;;2.40;;
357;SDS011;167;47.558;7.602;2023-03-24T05:53:09;2.70;;;2.50;;
357;SDS011;167;47.558;7.602;2023-03-24T05:55:35;2.27;;;1.90;;
357;SDS011;167;47.558;7.602;2023-03-24T05:58:02;1.87;;;1.77;;
357;SDS011;167;47.558;7.602;2023-03-24T06:00:29;1.60;;;1.50;;
357;SDS011;167;47.558;7.602;2023-03-24T06:02:56;1.27;;;1.27;;
357;SDS011;167;47.558;7.602;2023-03-24T06:05:22;1.60;;;1.50;;
357;SDS011;167;47.558;7.602;2023-03-24T06:07:48;2.13;;;1.40;;
357;SDS011;167;47.558;7.602;2023-03-24T06:10:14;1.70;;;1.63;;
357;SDS011;167;47.558;7.602;2023-03-24T06:12:42;2.13;;;2.00;;
357;SDS011;167;47.558;7.602;2023-03-24T06:15:08;1.80;;;1.63;;
357;SDS011;167;47.558;7.602;2023-03-24T06:17:34;2.03;;;1.93;;
357;SDS011;167;47.558;7.602;2023-03-24T06:20:07;2.27;;;2.17;;
357;SDS011;167;47.558;7.602;2023-03-24T06:22:39;3.40;;;3.10;;
357;SDS011;167;47.558;7.602;2023-03-24T06:25:06;2.33;;;2.20;;
357;SDS011;167;47.558;7.602;2023-03-24T06:27:33;3.27;;;2.70;;
357;SDS011;167;47.558;7.602;2023-03-24T06:30:00;3.50;;;3.30;;
357;SDS011;167;47.558;7.602;2023-03-24T06:32:26;3.00;;;2.80;;
357;SDS011;167;47.558;7.602;2023-03-24T06:34:52;7.70;;;2.90;;
357;SDS011;167;47.558;7.602;2023-03-24T06:37:22;3.37;;;3.17;;
357;SDS011;167;47.558;7.602;2023-03-24T06:39:48;3.30;;;3.10;;
357;SDS011;167;47.558;7.602;2023-03-24T06:42:14;2.70;;;2.60;;
357;SDS011;167;47.558;7.602;2023-03-24T06:44:42;3.03;;;2.70;;
357;SDS011;167;47.558;7.602;2023-03-24T06:47:08;2.70;;;2.53;;
357;SDS011;167;47.558;7.602;2023-03-24T06:49:34;2.97;;;2.77;;
357;SDS011;167;47.558;7.602;2023-03-24T06:52:01;2.73;;;2.53;;
357;SDS011;167;47.558;7.602;2023-03-24T06:54:27;2.20;;;2.10;;
357;SDS011;167;47.558;7.602;2023-03-24T06:56:53;1.93;;;1.60;;
357;SDS011;167;47.558;7.602;2023-03-24T06:59:20;1.50;;;1.50;;
357;SDS011;167;47.558;7.602;2023-03-24T07:01:48;1.30;;;1.27;;
357;SDS011;167;47.558;7.602;2023-03-24T07:04:14;1.27;;;1.17;;
357;SDS011;167;47.558;7.602;2023-03-24T07:06:40;1.33;;;1.33;;
357;SDS011;167;47.558;7.602;2023-03-24T07:09:06;1.20;;;1.20;;
357;SDS011;167;47.558;7.602;2023-03-24T07:11:33;1.30;;;1.30;;
357;SDS011;167;47.558;7.602;2023-03-24T07:13:59;1.40;;;1.40;;
357;SDS011;167;47.558;7.602;2023-03-24T07:16:25;2.30;;;1.50;;
357;SDS011;167;47.558;7.602;2023-03-24T07:18:50;1.60;;;1.50;;
357;SDS011;167;47.558;7.602;2023-03-24T07:21:16;3.70;;;1.20;;
357;SDS011;167;47.558;7.602;2023-03-24T07:23:43;2.10;;;1.17;;
357;SDS011;167;47.558;7.602;2023-03-24T07:26:09;0.90;;;0.90;;
357;SDS011;167;47.558;7.602;2023-03-24T07:28:35;1.50;;;1.40;;
357;SDS011;167;47.558;7.602;2023-03-24T07:31:02;1.50;;;1.50;;
357;SDS011;167;47.558;7.602;2023-03-24T07:33:28;2.23;;;1.00;;
357;SDS011;167;47.558;7.602;2023-03-24T07:35:54;1.43;;;0.97;;
357;SDS011;167;47.558;7.602;2023-03-24T07:38:21;0.90;;;0.90;;
357;SDS011;167;47.558;7.602;2023-03-24T07:40:47;1.13;;;1.13;;
357;SDS011;167;47.558;7.602;2023-03-24T07:43:13;0.90;;;0.90;;
357;SDS011;167;47.558;7.602;2023-03-24T07:45:39;1.47;;;1.00;;
357;SDS011;167;47.558;7.602;2023-03-24T07:48:05;1.47;;;1.37;;
357;SDS011;167;47.558;7.602;2023-03-24T07:50:31;0.90;;;0.90;;
357;SDS011;167;47.558;7.602;2023-03-24T07:52:57;1.40;;;1.30;;
357;SDS011;167;47.558;7.602;2023-03-24T07:55:23;2.23;;;1.30;;
357;SDS011;167;47.558;7.602;2023-03-24T07:57:50;1.07;;;1.07;;
357;SDS011;167;47.558;7.602;2023-03-24T08:00:17;1.30;;;1.00;;
357;SDS011;167;47.558;7.602;2023-03-24T08:02:44;1.27;;;1.27;;
357;SDS011;167;47.558;7.602;2023-03-24T08:05:10;1.93;;;1.10;;
357;SDS011;167;47.558;7.602;2023-03-24T08:07:39;1.20;;;1.20;;
357;SDS011;167;47.558;7.602;2023-03-24T08:10:07;1.20;;;1.20;;
357;SDS011;167;47.558;7.602;2023-03-24T08:12:33;1.43;;;1.20;;
357;SDS011;167;47.558;7.602;2023-03-24T08:14:59;2.20;;;1.57;;
357;SDS011;167;47.558;7.602;2023-03-24T08:17:25;1.00;;;1.00;;
357;SDS011;167;47.558;7.602;2023-03-24T08:19:50;1.50;;;1.40;;
357;SDS011;167;47.558;7.602;2023-03-24T08:22:16;2.20;;;1.77;;
357;SDS011;167;47.558;7.602;2023-03-24T08:24:42;1.27;;;1.27;;
357;SDS011;167;47.558;7.602;2023-03-24T08:27:08;1.20;;;1.20;;
357;SDS011;167;47.558;7.602;2023-03-24T08:29:34;1.47;;;1.37;;
357;SDS011;167;47.558;7.602;2023-03-24T08:32:01;1.23;;;1.13;;
357;SDS011;167;47.558;7.602;2023-03-24T08:34:27;1.30;;;1.30;;
357;SDS011;167;47.558;7.602;2023-03-24T08:36:53;1.10;;;1.10;;
357;SDS011;167;47.558;7.602;2023-03-24T08:39:19;1.23;;;1.23;;
357;SDS011;167;47.558;7.602;2023-03-24T08:41:45;1.47;;;1.40;;
357;SDS011;167;47.558;7.602;2023-03-24T08:44:14;1.40;;;1.40;;
357;SDS011;167;47.558;7.602;2023-03-24T08:46:40;1.70;;;1.60;;
357;SDS011;167;47.558;7.602;2023-03-24T08:49:06;2.40;;;2.10;;
357;SDS011;167;47.558;7.602;2023-03-24T08:51:33;1.53;;;1.37;;
357;SDS011;167;47.558;7.602;2023-03-24T08:53:59;1.33;;;1.33;;
357;SDS011;167;47.558;7.602;2023-03-24T08:56:25;1.57;;;1.47;;
357;SDS011;167;47.558;7.602;2023-03-24T08:58:52;1.80;;;1.70;;
357;SDS011;167;47.558;7.602;2023-03-24T09:01:18;1.50;;;1.40;;
357;SDS011;167;47.558;7.602;2023-03-24T09:03:45;1.43;;;1.43;;
357;SDS011;167;47.558;7.602;2023-03-24T09:06:11;1.60;;;1.50;;
357;SDS011;167;47.558;7.602;2023-03-24T09:08:37;1.43;;;1.33;;
357;SDS011;167;47.558;7.602;2023-03-24T09:11:04;1.40;;;1.40;;
357;SDS011;167;47.558;7.602;2023-03-24T09:13:30;1.63;;;1.53;;
357;SDS011;167;47.558;7.602;2023-03-24T09:15:57;1.50;;;1.40;;
357;SDS011;167;47.558;7.602;2023-03-24T09:18:24;1.10;;;1.00;;
357;SDS011;167;47.558;7.602;2023-03-24T09:20:50;1.33;;;1.33;;
357;SDS011;167;47.558;7.602;2023-03-24T09:23:16;2.60;;;1.60;;
357;SDS011;167;47.558;7.602;2023-03-24T09:25:42;1.00;;;1.00;;
357;SDS011;167;47.558;7.602;2023-03-24T09:28:08;1.00;;;1.00;;
357;SDS011;167;47.558;7.602;2023-03-24T09:30:34;0.70;;;0.70;;
357;SDS011;167;47.558;7.602;2023-03-24T09:33:01;0.97;;;0.90;;
357;SDS011;167;47.558;7.602;2023-03-24T09:35:27;1.00;;;0.90;;
357;SDS011;167;47.558;7.602;2023-03-24T09:37:53;0.70;;;0.70;;
357;SDS011;167;47.558;7.602;2023-03-24T09:42:51;0.80;;;0.80;;
357;SDS011;167;47.558;7.602;2023-03-24T09:45:19;1.90;;;0.60;;
357;SDS011;167;47.558;7.602;2023-03-24T09:47:54;0.87;;;0.87;;
357;SDS011;167;47.558;7.602;2023-03-24T09:50:26;0.70;;;0.70;;
357;SDS011;167;47.558;7.602;2023-03-24T09:52:58;0.60;;;0.60;;
357;SDS011;167;47.558;7.602;2023-03-24T09:55:26;0.70;;;0.70;;
357;SDS011;167;47.558;7.602;2023-03-24T09:57:53;1.87;;;0.97;;
357;SDS011;167;47.558;7.602;2023-03-24T10:00:21;0.70;;;0.70;;
357;SDS011;167;47.558;7.602;2023-03-24T10:02:49;0.83;;;0.60;;
357;SDS011;167;47.558;7.602;2023-03-24T10:05:17;0.80;;;0.80;;
357;SDS011;167;47.558;7.602;2023-03-24T10:07:49;0.60;;;0.60;;
357;SDS011;167;47.558;7.602;2023-03-24T10:10:26;0.77;;;0.77;;
357;SDS011;167;47.558;7.602;2023-03-24T10:12:55;0.80;;;0.80;;
357;SDS011;167;47.558;7.602;2023-03-24T10:15:35;0.50;;;0.50;;
357;SDS011;167;47.558;7.602;2023-03-24T10:20:36;0.63;;;0.63;;
357;SDS011;167;47.558;7.602;2023-03-24T10:25:55;1.17;;;0.73;;
357;SDS011;167;47.558;7.602;2023-03-24T10:28:27;3.13;;;0.73;;
357;SDS011;167;47.558;7.602;2023-03-24T10:30:59;0.43;;;0.43;;
357;SDS011;167;47.558;7.602;2023-03-24T10:33:25;0.93;;;0.50;;
357;SDS011;167;47.558;7.602;2023-03-24T10:35:56;0.47;;;0.47;;
357;SDS011;167;47.558;7.602;2023-03-24T10:38:24;0.60;;;0.60;;
357;SDS011;167;47.558;7.602;2023-03-24T10:40:50;0.70;;;0.70;;
357;SDS011;167;47.558;7.602;2023-03-24T10:43:17;1.90;;;0.83;;
357;SDS011;167;47.558;7.602;2023-03-24T10:45:45;0.60;;;0.60;;
357;SDS011;167;47.558;7.602;2023-03-24T10:48:12;1.23;;;0.60;;
357;SDS011;167;47.558;7.602;2023-03-24T10:50:43;0.50;;;0.50;;
357;SDS011;167;47.558;7.602;2023-03-24T10:53:19;0.73;;;0.50;;
357;SDS011;167;47.558;7.602;2023-03-24T10:55:45;0.50;;;0.50;;
357;SDS011;167;47.558;7.602;2023-03-24T10:58:53;0.60;;;0.60;;
357;SDS011;167;47.558;7.602;2023-03-24T11:01:00;2.10;;;0.60;;
357;SDS011;167;47.558;7.602;2023-03-24T11:03:30;1.00;;;0.70;;
357;SDS011;167;47.558;7.602;2023-03-24T11:05:58;0.93;;;0.50;;
357;SDS011;167;47.558;7.602;2023-03-24T11:10:54;1.10;;;1.00;;
357;SDS011;167;47.558;7.602;2023-03-24T11:18:54;4.73;;;0.70;;
357;SDS011;167;47.558;7.602;2023-03-24T11:21:21;0.60;;;0.60;;
357;SDS011;167;47.558;7.602;2023-03-24T11:23:47;0.87;;;0.87;;
357;SDS011;167;47.558;7.602;2023-03-24T11:26:20;1.80;;;0.80;;
357;SDS011;167;47.558;7.602;2023-03-24T11:28:54;0.70;;;0.70;;
357;SDS011;167;47.558;7.602;2023-03-24T11:31:22;0.67;;;0.67;;
357;SDS011;167;47.558;7.602;2023-03-24T11:34:11;0.60;;;0.60;;
357;SDS011;167;47.558;7.602;2023-03-24T11:36:36;0.50;;;0.50;;
357;SDS011;167;47.558;7.602;2023-03-24T11:39:03;0.50;;;0.50;;
357;SDS011;167;47.558;7.602;2023-03-24T11:41:35;0.83;;;0.63;;
357;SDS011;167;47.558;7.602;2023-03-24T11:44:16;0.60;;;0.60;;
357;SDS011;167;47.558;7.602;2023-03-24T11:46:43;0.70;;;0.70;;
357;SDS011;167;47.558;7.602;2023-03-24T11:49:09;0.60;;;0.60;;
357;SDS011;167;47.558;7.602;2023-03-24T11:51:37;0.87;;;0.87;;
357;SDS011;167;47.558;7.602;2023-03-24T11:54:06;0.60;;;0.60;;
357;SDS011;167;47.558;7.602;2023-03-24T11:56:41;1.13;;;1.03;;
357;SDS011;167;47.558;7.602;2023-03-24T12:01:59;0.57;;;0.57;;
357;SDS011;167;47.558;7.602;2023-03-24T12:04:38;1.30;;;0.73;;
357;SDS011;167;47.558;7.602;2023-03-24T12:12:04;0.73;;;0.73;;
357;SDS011;167;47.558;7.602;2023-03-24T12:22:08;0.50;;;0.50;;
357;SDS011;167;47.558;7.602;2023-03-24T12:24:41;0.50;;;0.50;;
357;SDS011;167;47.558;7.602;2023-03-24T12:27:14;0.50;;;0.50;;
357;SDS011;167;47.558;7.602;2023-03-24T12:35:07;0.40;;;0.40;;
357;SDS011;167;47.558;7.602;2023-03-24T12:43:03;0.40;;;0.40;;
357;SDS011;167;47.558;7.602;2023-03-24T12:50:41;0.40;;;0.40;;
357;SDS011;167;47.558;7.602;2023-03-24T12:53:20;0.53;;;0.53;;
357;SDS011;167;47.558;7.602;2023-03-24T12:55:50;0.40;;;0.40;;
357;SDS011;167;47.558;7.602;2023-03-24T12:58:22;0.70;;;0.43;;
357;SDS011;167;47.558;7.602;2023-03-24T13:01:02;0.47;;;0.40;;
357;SDS011;167;47.558;7.602;2023-03-24T13:06:23;0.40;;;0.40;;
357;SDS011;167;47.558;7.602;2023-03-24T13:09:04;2.30;;;0.80;;
357;SDS011;167;47.558;7.602;2023-03-24T13:14:15;0.87;;;0.87;;
357;SDS011;167;47.558;7.602;2023-03-24T13:16:42;0.43;;;0.43;;
357;SDS011;167;47.558;7.602;2023-03-24T13:19:19;0.40;;;0.40;;
357;SDS011;167;47.558;7.602;2023-03-24T13:21:47;0.40;;;0.40;;
357;SDS011;167;47.558;7.602;2023-03-24T13:24:14;1.13;;;1.03;;
357;SDS011;167;47.558;7.602;2023-03-24T13:27:24;0.70;;;0.70;;
357;SDS011;167;47.558;7.602;2023-03-24T13:34:46;0.40;;;0.40;;
357;SDS011;167;47.558;7.602;2023-03-24T13:37:18;0.73;;;0.40;;
357;SDS011;167;47.558;7.602;2023-03-24T13:39:49;0.60;;;0.50;;
357;SDS011;167;47.558;7.602;2023-03-24T13:42:26;0.40;;;0.40;;
357;SDS011;167;47.558;7.602;2023-03-24T13:44:54;1.80;;;0.60;;
357;SDS011;167;47.558;7.602;2023-03-24T13:47:20;0.53;;;0.43;;
357;SDS011;167;47.558;7.602;2023-03-24T13:49:54;0.97;;;0.83;;
357;SDS011;167;47.558;7.602;2023-03-24T13:52:25;0.40;;;0.40;;
357;SDS011;167;47.558;7.602;2023-03-24T13:54:54;0.53;;;0.53;;
357;SDS011;167;47.558;7.602;2023-03-24T13:57:21;0.47;;;0.47;;
357;SDS011;167;47.558;7.602;2023-03-24T14:02:42;2.53;;;0.73;;
357;SDS011;167;47.558;7.602;2023-03-24T14:07:50;0.60;;;0.60;;
357;SDS011;167;47.558;7.602;2023-03-24T14:13:18;0.50;;;0.50;;
357;SDS011;167;47.558;7.602;2023-03-24T14:20:43;0.60;;;0.60;;
357;SDS011;167;47.558;7.602;2023-03-24T14:23:37;0.50;;;0.50;;
357;SDS011;167;47.558;7.602;2023-03-24T14:26:48;0.50;;;0.50;;
357;SDS011;167;47.558;7.602;2023-03-24T14:28:50;0.40;;;0.40;;
357;SDS011;167;47.558;7.602;2023-03-24T14:31:18;0.63;;;0.63;;
357;SDS011;167;47.558;7.602;2023-03-24T14:36:19;1.37;;;0.80;;
357;SDS011;167;47.558;7.602;2023-03-24T14:38:47;0.70;;;0.70;;
357;SDS011;167;47.558;7.602;2023-03-24T14:41:14;0.60;;;0.60;;
357;SDS011;167;47.558;7.602;2023-03-24T14:53:49;0.50;;;0.50;;
357;SDS011;167;47.558;7.602;2023-03-24T14:56:16;3.23;;;0.90;;
357;SDS011;167;47.558;7.602;2023-03-24T14:58:43;0.47;;;0.47;;
357;SDS011;167;47.558;7.602;2023-03-24T15:01:09;1.13;;;1.00;;
357;SDS011;167;47.558;7.602;2023-03-24T15:06:14;0.50;;;0.50;;
357;SDS011;167;47.558;7.602;2023-03-24T15:08:44;0.50;;;0.50;;
357;SDS011;167;47.558;7.602;2023-03-24T15:11:12;0.50;;;0.50;;
357;SDS011;167;47.558;7.602;2023-03-24T15:13:39;0.50;;;0.50;;
357;SDS011;167;47.558;7.602;2023-03-24T15:18:33;0.60;;;0.60;;
357;SDS011;167;47.558;7.602;2023-03-24T15:20:59;1.03;;;0.67;;
357;SDS011;167;47.558;7.602;2023-03-24T15:23:26;0.60;;;0.60;;
357;SDS011;167;47.558;7.602;2023-03-24T15:25:52;0.70;;;0.70;;
357;SDS011;167;47.558;7.602;2023-03-24T15:28:20;0.50;;;0.50;;
357;SDS011;167;47.558;7.602;2023-03-24T15:30:47;0.60;;;0.60;;
357;SDS011;167;47.558;7.602;2023-03-24T15:33:13;0.63;;;0.63;;
357;SDS011;167;47.558;7.602;2023-03-24T15:35:42;0.70;;;0.70;;
357;SDS011;167;47.558;7.602;2023-03-24T15:38:18;0.80;;;0.80;;
357;SDS011;167;47.558;7.602;2023-03-24T15:40:55;0.70;;;0.70;;
357;SDS011;167;47.558;7.602;2023-03-24T15:43:22;0.80;;;0.80;;
357;SDS011;167;47.558;7.602;2023-03-24T15:45:50;1.10;;;1.00;;
357;SDS011;167;47.558;7.602;2023-03-24T15:48:17;1.00;;;1.00;;
357;SDS011;167;47.558;7.602;2023-03-24T15:50:57;0.60;;;0.60;;
357;SDS011;167;47.558;7.602;2023-03-24T15:53:27;0.93;;;0.60;;
357;SDS011;167;47.558;7.602;2023-03-24T15:56:12;0.60;;;0.60;;
357;SDS011;167;47.558;7.602;2023-03-24T15:58:45;12.10;;;7.87;;
357;SDS011;167;47.558;7.602;2023-03-24T16:01:12;1.03;;;1.03;;
357;SDS011;167;47.558;7.602;2023-03-24T16:03:41;0.70;;;0.70;;
357;SDS011;167;47.558;7.602;2023-03-24T16:06:11;0.60;;;0.60;;
357;SDS011;167;47.558;7.602;2023-03-24T16:08:38;0.60;;;0.60;;
357;SDS011;167;47.558;7.602;2023-03-24T16:11:07;0.80;;;0.80;;
357;SDS011;167;47.558;7.602;2023-03-24T16:13:36;0.90;;;0.90;;
357;SDS011;167;47.558;7.602;2023-03-24T16:16:07;1.17;;;1.10;;
357;SDS011;167;47.558;7.602;2023-03-24T16:18:35;0.70;;;0.70;;
357;SDS011;167;47.558;7.602;2023-03-24T16:21:10;0.70;;;0.70;;
357;SDS011;167;47.558;7.602;2023-03-24T16:23:36;0.70;;;0.70;;
357;SDS011;167;47.558;7.602;2023-03-24T16:26:02;1.17;;;0.80;;
357;SDS011;167;47.558;7.602;2023-03-24T16:28:28;0.80;;;0.80;;
357;SDS011;167;47.558;7.602;2023-03-24T16:30:57;0.70;;;0.70;;
357;SDS011;167;47.558;7.602;2023-03-24T16:33:23;1.23;;;0.83;;
357;SDS011;167;47.558;7.602;2023-03-24T16:35:49;0.53;;;0.53;;
357;SDS011;167;47.558;7.602;2023-03-24T16:38:15;0.77;;;0.77;;
357;SDS011;167;47.558;7.602;2023-03-24T16:40:45;1.90;;;0.70;;
357;SDS011;167;47.558;7.602;2023-03-24T16:43:12;0.67;;;0.67;;
357;SDS011;167;47.558;7.602;2023-03-24T16:45:39;1.23;;;0.90;;
357;SDS011;167;47.558;7.602;2023-03-24T16:48:05;0.87;;;0.60;;
357;SDS011;167;47.558;7.602;2023-03-24T16:50:33;1.07;;;0.70;;
357;SDS011;167;47.558;7.602;2023-03-24T16:53:00;0.60;;;0.60;;
357;SDS011;167;47.558;7.602;2023-03-24T16:55:28;0.90;;;0.90;;
357;SDS011;167;47.558;7.602;2023-03-24T16:57:54;1.47;;;0.90;;
357;SDS011;167;47.558;7.602;2023-03-24T17:00:20;1.63;;;0.70;;
357;SDS011;167;47.558;7.602;2023-03-24T17:02:46;1.10;;;1.03;;
357;SDS011;167;47.558;7.602;2023-03-24T17:05:23;0.83;;;0.83;;
357;SDS011;167;47.558;7.602;2023-03-24T17:07:51;0.73;;;0.73;;
357;SDS011;167;47.558;7.602;2023-03-24T17:10:17;1.20;;;1.20;;
357;SDS011;167;47.558;7.602;2023-03-24T17:12:43;1.10;;;1.00;;
357;SDS011;167;47.558;7.602;2023-03-24T17:15:18;1.03;;;0.80;;
357;SDS011;167;47.558;7.602;2023-03-24T17:17:45;0.80;;;0.80;;
357;SDS011;167;47.558;7.602;2023-03-24T17:20:11;0.60;;;0.60;;
357;SDS011;167;47.558;7.602;2023-03-24T17:22:37;1.10;;;0.87;;
357;SDS011;167;47.558;7.602;2023-03-24T17:25:04;0.60;;;0.60;;
357;SDS011;167;47.558;7.602;2023-03-24T17:27:30;1.07;;;0.87;;
357;SDS011;167;47.558;7.602;2023-03-24T17:29:55;0.90;;;0.90;;
357;SDS011;167;47.558;7.602;2023-03-24T17:32:26;0.80;;;0.80;;
357;SDS011;167;47.558;7.602;2023-03-24T17:34:53;1.10;;;1.00;;
357;SDS011;167;47.558;7.602;2023-03-24T17:37:19;0.83;;;0.83;;
357;SDS011;167;47.558;7.602;2023-03-24T17:39:45;1.40;;;0.80;;
357;SDS011;167;47.558;7.602;2023-03-24T17:42:11;0.80;;;0.80;;
357;SDS011;167;47.558;7.602;2023-03-24T17:44:37;0.90;;;0.90;;
357;SDS011;167;47.558;7.602;2023-03-24T17:47:03;0.90;;;0.60;;
357;SDS011;167;47.558;7.602;2023-03-24T17:49:29;0.67;;;0.67;;
357;SDS011;167;47.558;7.602;2023-03-24T17:51:57;0.77;;;0.77;;
357;SDS011;167;47.558;7.602;2023-03-24T17:54:23;0.60;;;0.60;;
357;SDS011;167;47.558;7.602;2023-03-24T17:56:49;0.77;;;0.77;;
357;SDS011;167;47.558;7.602;2023-03-24T17:59:15;1.67;;;0.97;;
357;SDS011;167;47.558;7.602;2023-03-24T18:01:42;1.40;;;1.33;;
357;SDS011;167;47.558;7.602;2023-03-24T18:04:08;5.50;;;1.30;;
357;SDS011;167;47.558;7.602;2023-03-24T18:06:34;1.30;;;1.20;;
357;SDS011;167;47.558;7.602;2023-03-24T18:09:02;2.00;;;1.40;;
357;SDS011;167;47.558;7.602;2023-03-24T18:11:28;0.83;;;0.83;;
357;SDS011;167;47.558;7.602;2023-03-24T18:13:54;0.80;;;0.80;;
357;SDS011;167;47.558;7.602;2023-03-24T18:16:20;1.10;;;1.00;;
357;SDS011;167;47.558;7.602;2023-03-24T18:18:47;0.90;;;0.90;;
357;SDS011;167;47.558;7.602;2023-03-24T18:21:13;0.90;;;0.90;;